Iaşi, România

06:52 AM EEST on iulie 23, 2014 (GMT +0300)
Iasi (LRIA) Elev 338 ft | 47.16 °N, 27.63 °E | Change Station

Current weather conditions updated 22 minutes ago

Partly Cloudy
Cer parţial noros
64 °F
Feels Like 64 °F
N
12
Vânt variabil Vânt from NNE

Today is forecast to be Warmer than yesterday. Furtuni cu fulgere..

astăzi
High -- | Low -- °F
--% Chance of Precip.
Ieri
High -- | Low -- °F
Precip. -- inch
5:37 AM 8:54 PM
Semilună în descreştere, 13% visible
Presiunea 29.83 inch
Vizibilitatea 6.2 mile
Nori Few 4800 ft
Punctul de rouă 63 °F
Umiditatea 94%
Precipitaţii 0.00 inch
Adâncimea zăpezii Not available.
UV 0 out of 12
Pollen Not available.
Calitatea aerului Not available.
Flu Activity Not available.
METAR LRIA 230330Z 03010KT 9999 FEW048CB 18/17 Q1010

More Conditions Fewer Conditions

Presiunea 29.83 inch
Vizibilitatea 6.2 mile
Nori Few 4800 ft
Punctul de rouă 63 °F
Umiditatea 94%
Precipitaţii 0.00 inch
Adâncimea zăpezii Not available.
UV 0 out of 12
Pollen Not available.
Calitatea aerului Not available.
Flu Activity Not available.
METAR LRIA 230330Z 03010KT 9999 FEW048CB 18/17 Q1010

More Conditions Fewer Conditions

10-Day Weather Forecast

Almanac

Astronomie

Jul. 23, 2014 Răsărit Apus
Timpul Actual 5:37 AM EEST 8:54 PM EEST
Crepusculul Civil 5:00 AM EEST 9:30 PM EEST
Crepusculul nautic 4:11 AM EEST 10:19 PM EEST
Răsărit Astronomic 3:09 AM EEST 11:20 PM EEST
Luna 2:42 AM EEST 6:05 PM EEST
Durata zilei lumină 16h 30m
Lungimea zilei
15h 16m
Tomorrow will be 2m 15s shorter.
Semilună în descreştere, 13% of the Moon is Illuminated
Jul 22
Semilună în descreştere
Jul 26
New
Aug 3
Primul pătrar
Aug 10
Lună plină
Aug 17
Ultimul pătrar

Yesterday's Extremes

Country Highs Country Lows

Community

WunderPhotos

Upload Photos

1,736,488 photos uploaded!

Nearby

Calitatea aerului

Not available.

Adâncimea zapezii

Not available.

Earthquake Activity

Oraş Distance Mag. Time & Date
No recent earthquake activity has been reported nearby.
Minimum magnitude displayed is 2.5.

Coastal Water Temperatures

Locul Temperatura
No Stations Reporting

Nearby Weather Stations

Locaţia staţiei Temp Punctul de rouă Umiditatea Vânt Precip. Elev Actualizare Type
Facultatea de Geografie si Geologie, Iasi 63.9 °F 62 °F 92% VSV  la  9.2 mph 0.00 inch / hr 358 ft 6:52 AM EEST Actualizare Rapidă
Iasi, Iasi 65.1 °F 64 °F 96% SV  la  0.0 mph - / hr 230 ft 6:50 AM EEST Normal
Enviroscopy SRL Iasi - www.enviroscopy.r, Ia%u0219i 64.8 °F 63 °F 93% NE  la  4.0 mph 0.00 inch / hr 220 ft 6:52 AM EEST Actualizare Rapidă

Show More Stations Show Fewer Stations